Main page
METAR-TAF:

METAR-TAF

Airports :

Leuchars Station

Leuchars, Scotland

latitude: 56-23N, longitude: 002-52W, elevation: 12 m

Current weather observation

The report was made 38 minutes ago, at 19:50 UTC
Wind 14 kt from the West/Southwest
Temperature 8°C
Humidity 93%
Pressure 1032 hPa
Visibility 10 km or more
Broken clouds at a height of 2500 ft

METAR: EGQL 221950Z 25014KT 9999 BKN025 08/07 Q1032 RMK BLU

Time: 20:28 (20:28 UTC)

Forecast

The report was made 4 hours and 4 minutes ago, at 16:24 UTC
Forecast valid from 22 at 18 UTC to 23 at 03 UTC
Wind 13 kt from the West/Southwest
Visibility 10 km or more
Scattered clouds at a height of 3500 ft
Probability 40% :
Temporary
from 22 at 18 UTC to 22 at 22 UTC
Scattered clouds at a height of 1500 ft

TAF: EGQL 221624Z 2218/2303 25013KT 9999 SCT035 PROB40 TEMPO 2218/2222 SCT015

Weather observations and forecasts of more than 4000 airports (METAR and TAF reports).

The available stations are represented by yellow and red dots on the map.

Hover mouse over dot to see the name of the station.

Then click to see weather observations and forecasts.

To change the map : click on the green buttons with a black cross to zoom in, on the green button with a dash to zoom out, or on the green arrows for adjacent maps.


METAR-TAF: